Time;durP1;ratioP1;P1;durP2;ratioP2;P2;SDS_P1;SDS_P2;PMS_P1;PMS_P2;Temp;Humidity;BMP_temperature;BMP_pressure;BME280_temperature;BME280_humidity;BME280_pressure;Samples;Min_cycle;Max_cycle;Signal;HPM_P1;HPM_P2
2023/02/28 00:00:20;;;;;;;40.77;17.13;;;;;;;;;;772007;181;919078;-65
2023/02/28 00:02:46;;;;;;;37.00;19.03;;;;;;;;;;777205;180;918497;-64
2023/02/28 00:05:12;;;;;;;34.07;19.57;;;;;;;;;;773364;180;918028;-66
2023/02/28 00:07:38;;;;;;;29.33;17.10;;;;;;;;;;773101;180;918451;-64
2023/02/28 00:10:06;;;;;;;33.40;18.73;;;;;;;;;;778936;180;917837;-64
2023/02/28 00:12:30;;;;;;;36.83;19.20;;;;;;;;;;776407;180;919491;-64
2023/02/28 00:14:56;;;;;;;30.60;16.92;;;;;;;;;;773658;180;912152;-64
2023/02/28 00:17:22;;;;;;;32.17;16.10;;;;;;;;;;772071;182;818397;-64
2023/02/28 00:19:48;;;;;;;37.57;15.40;;;;;;;;;;772476;180;918828;-67
2023/02/28 00:22:14;;;;;;;32.53;16.62;;;;;;;;;;775378;180;916369;-65
2023/02/28 00:24:39;;;;;;;29.10;16.57;;;;;;;;;;770488;180;910840;-69
2023/02/28 00:27:05;;;;;;;31.60;16.20;;;;;;;;;;777308;180;624695;-68
2023/02/28 00:29:31;;;;;;;36.53;17.53;;;;;;;;;;773632;181;918800;-64
2023/02/28 00:31:57;;;;;;;33.50;18.90;;;;;;;;;;771680;181;914990;-65
2023/02/28 00:34:23;;;;;;;43.38;19.25;;;;;;;;;;774351;181;810087;-66
2023/02/28 00:36:49;;;;;;;35.00;17.60;;;;;;;;;;768259;182;920933;-65
2023/02/28 00:39:15;;;;;;;31.20;17.93;;;;;;;;;;763697;182;938777;-68
2023/02/28 00:41:41;;;;;;;40.07;18.57;;;;;;;;;;771198;183;918813;-65
2023/02/28 00:44:06;;;;;;;34.57;18.03;;;;;;;;;;765336;182;1023071;-70
2023/02/28 00:46:32;;;;;;;35.33;18.60;;;;;;;;;;767348;183;818950;-67
2023/02/28 00:48:58;;;;;;;30.27;17.07;;;;;;;;;;763581;183;919193;-64
2023/02/28 00:51:24;;;;;;;37.23;18.33;;;;;;;;;;753599;185;919276;-65
2023/02/28 00:53:50;;;;;;;38.60;18.57;;;;;;;;;;760822;181;919355;-64
2023/02/28 00:56:16;;;;;;;35.53;18.67;;;;;;;;;;769660;181;919146;-65
2023/02/28 00:58:41;;;;;;;36.00;17.37;;;;;;;;;;777325;181;919249;-67
2023/02/28 01:01:07;;;;;;;39.35;17.45;;;;;;;;;;771705;181;918003;-65
2023/02/28 01:03:33;;;;;;;40.63;18.90;;;;;;;;;;772217;181;922600;-64
2023/02/28 01:05:59;;;;;;;36.10;18.57;;;;;;;;;;777341;181;918524;-66
2023/02/28 01:08:25;;;;;;;32.57;16.27;;;;;;;;;;772953;181;918579;-67
2023/02/28 01:10:51;;;;;;;32.10;18.57;;;;;;;;;;773699;181;818484;-64
2023/02/28 01:13:17;;;;;;;33.38;18.02;;;;;;;;;;776443;181;920113;-65
2023/02/28 01:15:44;;;;;;;40.73;19.57;;;;;;;;;;768295;180;818299;-68
2023/02/28 01:18:10;;;;;;;33.50;18.67;;;;;;;;;;762826;182;919217;-66
2023/02/28 01:20:37;;;;;;;30.63;16.47;;;;;;;;;;769213;180;918368;-65
2023/02/28 01:23:02;;;;;;;35.45;16.77;;;;;;;;;;774677;180;918457;-66
2023/02/28 01:25:28;;;;;;;41.53;19.30;;;;;;;;;;768864;182;919489;-64
2023/02/28 01:27:54;;;;;;;30.58;18.48;;;;;;;;;;767630;182;916962;-66
2023/02/28 01:30:20;;;;;;;34.73;17.70;;;;;;;;;;772950;182;915819;-67
2023/02/28 01:32:46;;;;;;;37.22;18.58;;;;;;;;;;769104;181;914294;-66
2023/02/28 01:35:12;;;;;;;43.20;20.93;;;;;;;;;;775760;180;918855;-65
2023/02/28 01:37:38;;;;;;;41.17;18.55;;;;;;;;;;776410;181;918015;-66
2023/02/28 01:40:04;;;;;;;35.27;17.13;;;;;;;;;;776479;181;815458;-64
2023/02/28 01:42:30;;;;;;;41.93;19.03;;;;;;;;;;774261;181;918262;-64
2023/02/28 01:45:00;;;;;;;38.33;21.70;;;;;;;;;;774102;180;919111;-64
2023/02/28 01:47:26;;;;;;;37.10;19.90;;;;;;;;;;778334;180;919564;-64
2023/02/28 01:49:52;;;;;;;38.93;20.70;;;;;;;;;;770859;178;917778;-66
2023/02/28 01:52:18;;;;;;;35.60;18.23;;;;;;;;;;769725;181;918128;-65
2023/02/28 01:54:43;;;;;;;41.13;20.97;;;;;;;;;;775248;181;919354;-67
2023/02/28 01:57:09;;;;;;;39.30;20.20;;;;;;;;;;774105;181;919612;-64
2023/02/28 01:59:35;;;;;;;38.10;20.90;;;;;;;;;;774749;181;919230;-64
2023/02/28 02:02:01;;;;;;;35.63;20.03;;;;;;;;;;771727;181;919544;-65
2023/02/28 02:04:27;;;;;;;43.47;19.93;;;;;;;;;;775131;181;919044;-66
2023/02/28 02:06:53;;;;;;;35.03;17.80;;;;;;;;;;769800;181;929965;-64
2023/02/28 02:09:18;;;;;;;40.63;20.57;;;;;;;;;;771244;181;919261;-66
2023/02/28 02:11:44;;;;;;;39.30;20.07;;;;;;;;;;777407;181;917369;-65
2023/02/28 02:14:17;;;;;;;42.03;21.20;;;;;;;;;;769743;179;771906;-66
2023/02/28 02:16:43;;;;;;;41.60;19.93;;;;;;;;;;765696;180;918713;-66
2023/02/28 02:19:13;;;;;;;38.57;20.20;;;;;;;;;;768609;181;816508;-66
2023/02/28 02:21:54;;;;;;;40.57;19.83;;;;;;;;;;776787;179;913531;-66
2023/02/28 02:24:26;;;;;;;40.30;19.97;;;;;;;;;;765925;184;915850;-68
2023/02/28 02:26:55;;;;;;;41.67;21.40;;;;;;;;;;770843;181;916833;-68
2023/02/28 02:29:24;;;;;;;39.83;21.60;;;;;;;;;;771588;181;921231;-65
2023/02/28 02:31:56;;;;;;;41.47;22.17;;;;;;;;;;765879;181;913256;-66
2023/02/28 02:34:23;;;;;;;49.97;23.87;;;;;;;;;;771465;179;812473;-66
2023/02/28 02:36:49;;;;;;;42.40;21.23;;;;;;;;;;765308;183;921719;-67
2023/02/28 02:39:17;;;;;;;44.47;22.10;;;;;;;;;;769726;180;946235;-67
2023/02/28 02:41:47;;;;;;;44.30;26.07;;;;;;;;;;774299;180;1024076;-67
2023/02/28 02:44:14;;;;;;;57.63;25.97;;;;;;;;;;776162;181;919206;-68
2023/02/28 02:46:47;;;;;;;50.83;25.77;;;;;;;;;;774439;181;920956;-66
2023/02/28 02:49:14;;;;;;;52.97;25.67;;;;;;;;;;774889;180;919648;-67
2023/02/28 02:51:39;;;;;;;48.72;24.17;;;;;;;;;;771908;181;922365;-68
2023/02/28 02:54:05;;;;;;;58.23;26.23;;;;;;;;;;776461;181;918626;-68
2023/02/28 02:56:31;;;;;;;53.60;26.20;;;;;;;;;;773165;181;930174;-66
2023/02/28 02:58:57;;;;;;;46.50;24.20;;;;;;;;;;770606;181;918886;-67
2023/02/28 03:01:29;;;;;;;55.13;26.27;;;;;;;;;;778224;181;810686;-67
2023/02/28 03:03:58;;;;;;;54.13;25.60;;;;;;;;;;775738;181;918759;-65
2023/02/28 03:06:24;;;;;;;50.20;25.50;;;;;;;;;;766692;180;917309;-66
2023/02/28 03:08:50;;;;;;;44.13;22.60;;;;;;;;;;769484;178;894174;-68
2023/02/28 03:11:16;;;;;;;56.07;28.43;;;;;;;;;;776803;180;757990;-65
2023/02/28 03:13:42;;;;;;;57.10;27.67;;;;;;;;;;766969;182;919584;-66
2023/02/28 03:16:27;;;;;;;45.13;23.90;;;;;;;;;;763632;183;919332;-67
2023/02/28 03:18:55;;;;;;;46.47;23.47;;;;;;;;;;755187;182;921065;-68
2023/02/28 03:21:20;;;;;;;59.97;25.77;;;;;;;;;;765300;181;918736;-66
2023/02/28 03:23:52;;;;;;;45.80;22.50;;;;;;;;;;770891;182;918045;-68
2023/02/28 03:26:19;;;;;;;39.30;22.53;;;;;;;;;;771556;181;920501;-65
2023/02/28 03:29:03;;;;;;;49.30;26.50;;;;;;;;;;770341;181;918672;-68
2023/02/28 03:31:31;;;;;;;43.92;22.13;;;;;;;;;;769893;181;919591;-68
2023/02/28 03:33:59;;;;;;;40.87;21.17;;;;;;;;;;770792;181;917130;-65
2023/02/28 03:36:24;;;;;;;38.97;20.67;;;;;;;;;;778745;181;917833;-65
2023/02/28 03:38:51;;;;;;;42.83;22.53;;;;;;;;;;770207;179;930614;-68
2023/02/28 03:41:18;;;;;;;42.83;19.67;;;;;;;;;;773677;179;919053;-66
2023/02/28 03:43:43;;;;;;;38.43;22.90;;;;;;;;;;776935;181;815988;-68
2023/02/28 03:46:09;;;;;;;36.77;19.10;;;;;;;;;;772983;179;906824;-70
2023/02/28 03:48:35;;;;;;;38.13;21.50;;;;;;;;;;768982;182;920387;-66
2023/02/28 03:51:01;;;;;;;40.75;22.10;;;;;;;;;;778075;181;920003;-70
2023/02/28 03:53:30;;;;;;;43.67;21.60;;;;;;;;;;772824;181;918852;-65
2023/02/28 03:55:56;;;;;;;32.47;19.53;;;;;;;;;;773550;181;931725;-70
2023/02/28 03:58:22;;;;;;;39.88;20.98;;;;;;;;;;775017;181;817053;-69
2023/02/28 04:00:48;;;;;;;29.53;18.00;;;;;;;;;;776821;181;816980;-68
2023/02/28 04:03:14;;;;;;;33.03;19.77;;;;;;;;;;770997;181;923184;-69
2023/02/28 04:05:44;;;;;;;41.87;20.63;;;;;;;;;;772234;181;917926;-66
2023/02/28 04:08:09;;;;;;;39.07;20.40;;;;;;;;;;772546;181;953269;-67
2023/02/28 04:10:35;;;;;;;39.23;20.63;;;;;;;;;;753042;183;921880;-66
2023/02/28 04:13:01;;;;;;;45.10;24.33;;;;;;;;;;757297;183;914117;-66
2023/02/28 04:15:27;;;;;;;39.05;23.15;;;;;;;;;;756847;183;920158;-69
2023/02/28 04:17:53;;;;;;;42.70;21.30;;;;;;;;;;770787;180;919219;-66
2023/02/28 04:20:19;;;;;;;40.33;22.63;;;;;;;;;;769517;181;922780;-66
2023/02/28 04:22:44;;;;;;;34.10;21.37;;;;;;;;;;766276;182;923492;-68
2023/02/28 04:25:10;;;;;;;43.00;21.07;;;;;;;;;;775332;180;913968;-66
2023/02/28 04:27:36;;;;;;;39.97;20.13;;;;;;;;;;771287;180;918255;-68
2023/02/28 04:30:02;;;;;;;34.57;20.73;;;;;;;;;;763046;180;918570;-68
2023/02/28 04:32:28;;;;;;;42.97;21.73;;;;;;;;;;758200;185;911314;-68
2023/02/28 04:34:54;;;;;;;36.40;18.70;;;;;;;;;;758063;183;915563;-68
2023/02/28 04:37:20;;;;;;;38.97;20.30;;;;;;;;;;772143;181;820802;-67
2023/02/28 04:39:46;;;;;;;41.63;22.60;;;;;;;;;;764242;182;919240;-65
2023/02/28 04:42:12;;;;;;;33.08;19.27;;;;;;;;;;768983;183;918519;-66
2023/02/28 04:44:37;;;;;;;47.37;19.33;;;;;;;;;;760896;182;915286;-69
2023/02/28 04:47:03;;;;;;;40.73;21.67;;;;;;;;;;762962;180;919291;-66
2023/02/28 04:49:29;;;;;;;39.93;21.53;;;;;;;;;;765524;183;918756;-68
2023/02/28 04:51:55;;;;;;;78.77;39.73;;;;;;;;;;772722;183;919860;-65
2023/02/28 04:54:21;;;;;;;80.17;38.03;;;;;;;;;;763102;181;918003;-68
2023/02/28 04:56:49;;;;;;;43.53;23.50;;;;;;;;;;779096;179;917359;-68
2023/02/28 04:59:12;;;;;;;46.97;24.93;;;;;;;;;;770314;181;816682;-66
2023/02/28 05:01:38;;;;;;;41.83;23.45;;;;;;;;;;766368;180;918610;-66
2023/02/28 05:04:04;;;;;;;58.87;25.20;;;;;;;;;;772513;181;918342;-68
2023/02/28 05:06:30;;;;;;;47.70;24.83;;;;;;;;;;747325;184;923449;-68
2023/02/28 05:08:56;;;;;;;41.73;23.00;;;;;;;;;;758029;180;1021907;-68
2023/02/28 05:11:24;;;;;;;48.60;25.00;;;;;;;;;;774109;180;919132;-68
2023/02/28 05:13:49;;;;;;;41.60;22.40;;;;;;;;;;771157;181;817283;-68
2023/02/28 05:16:15;;;;;;;38.93;22.00;;;;;;;;;;768363;180;918013;-67
2023/02/28 05:18:41;;;;;;;48.17;20.48;;;;;;;;;;767596;181;919076;-66
2023/02/28 05:21:07;;;;;;;45.70;20.83;;;;;;;;;;771629;179;920207;-69
2023/02/28 05:23:33;;;;;;;32.70;20.20;;;;;;;;;;771452;180;922748;-66
2023/02/28 05:25:59;;;;;;;53.53;26.70;;;;;;;;;;768576;180;917623;-65
2023/02/28 05:28:24;;;;;;;35.93;19.17;;;;;;;;;;768922;179;921431;-67
2023/02/28 05:30:50;;;;;;;35.40;20.15;;;;;;;;;;766155;182;917960;-69
2023/02/28 05:33:16;;;;;;;37.87;20.27;;;;;;;;;;769558;181;919056;-68
2023/02/28 05:35:43;;;;;;;48.27;22.50;;;;;;;;;;767262;181;920828;-68
2023/02/28 05:38:09;;;;;;;42.83;21.73;;;;;;;;;;775385;181;816127;-65
2023/02/28 05:40:34;;;;;;;38.33;21.03;;;;;;;;;;773692;180;919555;-68
2023/02/28 05:43:00;;;;;;;41.70;22.70;;;;;;;;;;770402;181;817133;-69
2023/02/28 05:45:26;;;;;;;41.47;25.30;;;;;;;;;;774060;180;816070;-67
2023/02/28 05:47:54;;;;;;;41.93;23.90;;;;;;;;;;767915;181;855534;-66
2023/02/28 05:50:20;;;;;;;36.63;20.23;;;;;;;;;;769897;181;919804;-66
2023/02/28 05:52:45;;;;;;;35.97;22.70;;;;;;;;;;767530;181;915106;-69
2023/02/28 05:55:11;;;;;;;47.00;23.97;;;;;;;;;;773767;181;815724;-67
2023/02/28 05:57:37;;;;;;;43.70;22.53;;;;;;;;;;771094;180;1021952;-65
2023/02/28 06:00:03;;;;;;;39.23;23.37;;;;;;;;;;773551;181;916080;-68
2023/02/28 06:02:29;;;;;;;45.90;26.63;;;;;;;;;;777921;180;618391;-68
2023/02/28 06:04:55;;;;;;;48.70;21.43;;;;;;;;;;769527;179;756615;-68
2023/02/28 06:07:22;;;;;;;52.53;26.90;;;;;;;;;;769605;180;919654;-66
2023/02/28 06:09:47;;;;;;;42.43;23.10;;;;;;;;;;775666;180;920083;-68
2023/02/28 06:12:12;;;;;;;48.33;27.45;;;;;;;;;;770579;180;900279;-68
2023/02/28 06:14:38;;;;;;;62.13;37.30;;;;;;;;;;771461;180;916657;-69
2023/02/28 06:17:04;;;;;;;55.63;29.83;;;;;;;;;;774682;181;712679;-67
2023/02/28 06:19:30;;;;;;;52.20;26.50;;;;;;;;;;771901;178;878656;-66
2023/02/28 06:21:56;;;;;;;49.50;27.87;;;;;;;;;;772000;180;817665;-70
2023/02/28 06:24:22;;;;;;;58.70;30.10;;;;;;;;;;772402;181;817226;-68
2023/02/28 06:26:48;;;;;;;49.05;26.45;;;;;;;;;;774270;181;816475;-68
2023/02/28 06:29:18;;;;;;;47.37;23.00;;;;;;;;;;768331;181;881881;-66
2023/02/28 06:31:39;;;;;;;43.93;25.47;;;;;;;;;;770370;179;917390;-65
2023/02/28 06:34:05;;;;;;;48.40;25.23;;;;;;;;;;776721;181;918690;-65
2023/02/28 06:36:31;;;;;;;42.77;26.37;;;;;;;;;;771777;180;921867;-65
2023/02/28 06:38:57;;;;;;;41.20;21.40;;;;;;;;;;770993;181;886090;-65
2023/02/28 06:41:23;;;;;;;54.42;27.05;;;;;;;;;;776637;181;816434;-69
2023/02/28 06:43:48;;;;;;;49.80;25.27;;;;;;;;;;771265;181;914203;-65
2023/02/28 06:46:14;;;;;;;48.70;23.63;;;;;;;;;;772194;180;917126;-64
2023/02/28 06:48:40;;;;;;;38.80;19.60;;;;;;;;;;771967;181;903851;-69
2023/02/28 06:51:06;;;;;;;46.40;23.60;;;;;;;;;;774402;181;795970;-69
2023/02/28 06:53:32;;;;;;;42.43;23.70;;;;;;;;;;770425;181;915115;-63
2023/02/28 06:55:58;;;;;;;42.57;23.33;;;;;;;;;;769208;179;919740;-69
2023/02/28 06:58:24;;;;;;;43.07;24.30;;;;;;;;;;775961;181;922273;-64
2023/02/28 07:00:50;;;;;;;68.23;29.50;;;;;;;;;;776597;180;915227;-69
2023/02/28 07:03:17;;;;;;;31.85;16.17;;;;;;;;;;772412;181;920893;-67
2023/02/28 07:05:42;;;;;;;39.43;25.03;;;;;;;;;;777252;181;918693;-69
2023/02/28 07:08:08;;;;;;;37.57;20.10;;;;;;;;;;767217;181;919458;-65
2023/02/28 07:10:34;;;;;;;37.03;20.37;;;;;;;;;;769601;181;913851;-65
2023/02/28 07:13:00;;;;;;;31.67;14.60;;;;;;;;;;767823;179;921099;-69
2023/02/28 07:15:25;;;;;;;35.17;15.33;;;;;;;;;;776657;181;919934;-71
2023/02/28 07:17:51;;;;;;;15.77;10.00;;;;;;;;;;767693;181;920244;-66
2023/02/28 07:20:17;;;;;;;36.93;19.07;;;;;;;;;;770461;180;918141;-70
2023/02/28 07:22:43;;;;;;;22.73;13.97;;;;;;;;;;774750;180;919069;-65
2023/02/28 07:25:09;;;;;;;35.87;22.83;;;;;;;;;;774220;180;917847;-65
2023/02/28 07:27:35;;;;;;;20.73;10.27;;;;;;;;;;771636;180;922837;-65
2023/02/28 07:30:01;;;;;;;30.17;15.47;;;;;;;;;;776239;181;919397;-65
2023/02/28 07:32:27;;;;;;;24.90;10.50;;;;;;;;;;773219;180;818063;-70
2023/02/28 07:34:52;;;;;;;31.37;15.07;;;;;;;;;;772421;181;910863;-64
2023/02/28 07:37:18;;;;;;;24.83;15.07;;;;;;;;;;772922;181;918648;-70
2023/02/28 07:39:44;;;;;;;30.67;17.63;;;;;;;;;;777782;178;917790;-64
2023/02/28 07:42:11;;;;;;;17.83;9.63;;;;;;;;;;769756;181;940193;-70
2023/02/28 07:44:40;;;;;;;28.33;11.83;;;;;;;;;;768904;181;919496;-70
2023/02/28 07:47:02;;;;;;;30.37;17.17;;;;;;;;;;769566;181;919044;-65
2023/02/28 07:49:27;;;;;;;18.87;12.90;;;;;;;;;;765680;181;1017033;-65
2023/02/28 07:51:53;;;;;;;17.13;11.43;;;;;;;;;;773227;180;918984;-65
2023/02/28 07:54:19;;;;;;;29.13;17.07;;;;;;;;;;775210;180;915547;-64
2023/02/28 07:56:45;;;;;;;25.50;15.93;;;;;;;;;;766216;181;917993;-70
2023/02/28 07:59:11;;;;;;;29.00;15.70;;;;;;;;;;771995;181;920913;-69
2023/02/28 08:01:37;;;;;;;22.40;13.73;;;;;;;;;;777147;180;914851;-65
2023/02/28 08:04:03;;;;;;;18.97;8.87;;;;;;;;;;773243;181;918725;-64
2023/02/28 08:06:28;;;;;;;21.27;12.97;;;;;;;;;;772594;181;816078;-71
2023/02/28 08:08:55;;;;;;;30.60;12.27;;;;;;;;;;770625;181;919638;-69
2023/02/28 08:11:20;;;;;;;17.17;14.07;;;;;;;;;;770003;182;919784;-71
2023/02/28 08:13:46;;;;;;;32.10;16.70;;;;;;;;;;769153;181;921920;-70
2023/02/28 08:16:15;;;;;;;29.63;17.55;;;;;;;;;;773290;179;888710;-65
2023/02/28 08:18:38;;;;;;;24.30;14.77;;;;;;;;;;773445;181;816299;-65
2023/02/28 08:21:06;;;;;;;15.80;11.17;;;;;;;;;;774805;181;814637;-70
2023/02/28 08:23:33;;;;;;;59.80;18.90;;;;;;;;;;771562;180;1126081;-66
2023/02/28 08:25:58;;;;;;;39.20;18.92;;;;;;;;;;768278;179;1019292;-66
2023/02/28 08:28:24;;;;;;;27.27;15.23;;;;;;;;;;759439;185;816368;-65
2023/02/28 08:30:50;;;;;;;26.63;13.70;;;;;;;;;;756976;183;916587;-69
2023/02/28 08:33:15;;;;;;;13.15;8.43;;;;;;;;;;769854;180;913502;-70
2023/02/28 08:35:41;;;;;;;14.40;7.03;;;;;;;;;;776032;180;917194;-65
2023/02/28 08:38:07;;;;;;;26.47;13.40;;;;;;;;;;766751;180;918495;-65
2023/02/28 08:40:33;;;;;;;18.15;11.05;;;;;;;;;;772916;181;919445;-65
2023/02/28 08:43:00;;;;;;;21.20;12.17;;;;;;;;;;780021;180;846800;-72
2023/02/28 08:45:25;;;;;;;16.97;10.33;;;;;;;;;;774945;179;815897;-64
2023/02/28 08:47:52;;;;;;;18.13;12.20;;;;;;;;;;772632;180;915995;-71
2023/02/28 08:50:16;;;;;;;21.70;13.90;;;;;;;;;;775853;181;916709;-70
2023/02/28 08:52:43;;;;;;;23.97;14.50;;;;;;;;;;769174;181;820331;-69
2023/02/28 08:55:09;;;;;;;17.77;12.00;;;;;;;;;;774259;181;919285;-71
2023/02/28 08:57:34;;;;;;;29.70;16.80;;;;;;;;;;761246;179;920196;-66
2023/02/28 09:00:04;;;;;;;20.50;12.87;;;;;;;;;;774571;181;819083;-70
2023/02/28 09:02:26;;;;;;;17.83;8.87;;;;;;;;;;771323;181;919189;-65
2023/02/28 09:04:52;;;;;;;22.77;11.47;;;;;;;;;;770983;181;934608;-66
2023/02/28 09:07:18;;;;;;;13.83;8.97;;;;;;;;;;776024;181;914715;-72
2023/02/28 09:09:53;;;;;;;35.50;17.97;;;;;;;;;;768038;181;916521;-71
2023/02/28 09:12:09;;;;;;;23.73;9.60;;;;;;;;;;763773;180;919434;-66
2023/02/28 09:14:35;;;;;;;22.30;11.10;;;;;;;;;;774667;180;812292;-67
2023/02/28 09:17:01;;;;;;;19.47;9.23;;;;;;;;;;772049;181;918214;-66
2023/02/28 09:19:27;;;;;;;28.00;14.63;;;;;;;;;;772230;181;915705;-70
2023/02/28 09:21:53;;;;;;;26.30;13.77;;;;;;;;;;771016;181;917413;-67
2023/02/28 09:24:20;;;;;;;54.85;24.95;;;;;;;;;;781199;179;918543;-66
2023/02/28 09:26:44;;;;;;;19.47;13.40;;;;;;;;;;769332;181;919190;-68
2023/02/28 09:29:11;;;;;;;23.77;14.37;;;;;;;;;;766507;181;909576;-67
2023/02/28 09:31:36;;;;;;;18.00;9.03;;;;;;;;;;776498;180;915079;-70
2023/02/28 09:34:02;;;;;;;19.30;13.13;;;;;;;;;;772516;180;1018462;-70
2023/02/28 09:36:29;;;;;;;16.27;9.35;;;;;;;;;;768527;180;920756;-70
2023/02/28 09:38:54;;;;;;;38.20;15.50;;;;;;;;;;777551;180;920301;-70
2023/02/28 09:41:20;;;;;;;27.63;16.03;;;;;;;;;;771179;181;1021140;-65
2023/02/28 09:43:46;;;;;;;22.17;11.83;;;;;;;;;;775702;180;922679;-70
2023/02/28 09:46:28;;;;;;;25.50;14.60;;;;;;;;;;773337;181;1021394;-70
2023/02/28 09:48:55;;;;;;;21.03;11.90;;;;;;;;;;758212;184;919385;-71
2023/02/28 09:51:36;;;;;;;27.33;13.00;;;;;;;;;;764256;183;910346;-65
2023/02/28 09:54:03;;;;;;;21.10;8.30;;;;;;;;;;763372;182;920257;-71
2023/02/28 09:56:28;;;;;;;16.37;9.60;;;;;;;;;;770538;179;1017368;-66
2023/02/28 09:59:10;;;;;;;15.40;7.83;;;;;;;;;;773192;180;917653;-72
2023/02/28 10:01:37;;;;;;;16.50;7.50;;;;;;;;;;768267;181;1021615;-65
2023/02/28 10:04:18;;;;;;;16.13;10.63;;;;;;;;;;777319;181;916134;-65
2023/02/28 10:06:45;;;;;;;12.83;6.83;;;;;;;;;;769390;181;920125;-66
2023/02/28 10:09:13;;;;;;;13.60;8.33;;;;;;;;;;773119;179;920230;-66
2023/02/28 10:11:37;;;;;;;16.07;9.03;;;;;;;;;;776303;180;987595;-70
2023/02/28 10:14:05;;;;;;;20.43;12.60;;;;;;;;;;775024;180;908448;-65
2023/02/28 10:16:29;;;;;;;21.87;11.67;;;;;;;;;;765382;181;913885;-65
2023/02/28 10:18:56;;;;;;;22.07;13.23;;;;;;;;;;775801;180;946511;-65
2023/02/28 10:21:21;;;;;;;20.27;10.93;;;;;;;;;;775001;181;816793;-70
2023/02/28 10:23:47;;;;;;;21.10;11.77;;;;;;;;;;770790;181;918446;-70
2023/02/28 10:26:13;;;;;;;18.63;10.40;;;;;;;;;;764994;181;919639;-69
2023/02/28 10:28:39;;;;;;;23.47;14.03;;;;;;;;;;769917;182;918223;-65
2023/02/28 10:31:05;;;;;;;12.05;7.60;;;;;;;;;;776114;181;919233;-66
2023/02/28 10:33:31;;;;;;;16.50;11.07;;;;;;;;;;772468;181;918891;-65
2023/02/28 10:35:56;;;;;;;15.07;9.40;;;;;;;;;;773087;181;919242;-65
2023/02/28 10:38:22;;;;;;;17.90;9.87;;;;;;;;;;773334;182;917847;-64
2023/02/28 10:40:48;;;;;;;23.30;13.90;;;;;;;;;;769001;181;919699;-70
2023/02/28 10:43:21;;;;;;;25.87;14.87;;;;;;;;;;769417;181;927533;-71
2023/02/28 10:45:55;;;;;;;33.07;14.97;;;;;;;;;;770789;181;919824;-70
2023/02/28 10:48:36;;;;;;;33.60;15.30;;;;;;;;;;777642;180;918317;-71
2023/02/28 10:51:03;;;;;;;27.77;13.53;;;;;;;;;;771195;180;816385;-71
2023/02/28 10:53:28;;;;;;;27.70;10.80;;;;;;;;;;770276;179;816817;-65
2023/02/28 10:56:13;;;;;;;30.10;13.68;;;;;;;;;;769215;181;919177;-65
2023/02/28 10:59:00;;;;;;;21.83;12.30;;;;;;;;;;775231;180;817682;-72
2023/02/28 11:01:31;;;;;;;8.50;6.37;;;;;;;;;;770829;181;867876;-73
2023/02/28 11:03:57;;;;;;;21.50;12.13;;;;;;;;;;768495;181;918922;-64
2023/02/28 11:06:23;;;;;;;16.67;8.50;;;;;;;;;;775914;181;922657;-64
2023/02/28 11:08:51;;;;;;;17.60;10.30;;;;;;;;;;762344;181;919049;-64
2023/02/28 11:11:16;;;;;;;19.93;13.70;;;;;;;;;;763696;183;916314;-64
2023/02/28 11:13:42;;;;;;;16.27;9.13;;;;;;;;;;767449;179;912736;-65
2023/02/28 11:16:08;;;;;;;13.70;10.87;;;;;;;;;;783298;180;26460;-63
2023/02/28 11:18:44;;;;;;;15.00;9.40;;;;;;;;;;762893;183;916946;-64
2023/02/28 11:21:10;;;;;;;23.37;10.53;;;;;;;;;;758902;183;914538;-64
2023/02/28 11:23:36;;;;;;;21.20;12.33;;;;;;;;;;771311;180;960339;-64
2023/02/28 11:26:02;;;;;;;12.37;7.97;;;;;;;;;;780162;181;818269;-70
2023/02/28 11:28:27;;;;;;;21.47;14.33;;;;;;;;;;773556;181;819814;-70
2023/02/28 11:31:00;;;;;;;13.70;9.70;;;;;;;;;;773369;180;819868;-64
2023/02/28 11:33:31;;;;;;;12.87;9.63;;;;;;;;;;775811;181;816247;-64
2023/02/28 11:35:58;;;;;;;20.43;13.13;;;;;;;;;;768310;181;920523;-69
2023/02/28 11:38:23;;;;;;;16.13;9.40;;;;;;;;;;761608;179;918912;-70
2023/02/28 11:41:04;;;;;;;18.00;11.80;;;;;;;;;;767614;180;921961;-69
2023/02/28 11:43:45;;;;;;;12.55;8.35;;;;;;;;;;765676;181;935323;-63
2023/02/28 11:46:11;;;;;;;24.93;11.80;;;;;;;;;;771581;181;900159;-69
2023/02/28 11:48:37;;;;;;;11.90;8.88;;;;;;;;;;772938;181;918565;-71
2023/02/28 11:51:09;;;;;;;24.60;12.90;;;;;;;;;;771064;181;918030;-70
2023/02/28 11:53:36;;;;;;;25.12;14.40;;;;;;;;;;767353;180;894461;-69
2023/02/28 11:56:01;;;;;;;25.90;11.43;;;;;;;;;;767508;179;917900;-71
2023/02/28 11:58:27;;;;;;;20.48;11.70;;;;;;;;;;761803;184;919198;-64
2023/02/28 12:00:59;;;;;;;15.10;9.97;;;;;;;;;;769982;180;919882;-65
2023/02/28 12:03:25;;;;;;;10.63;7.20;;;;;;;;;;768478;181;919073;-70
2023/02/28 12:06:05;;;;;;;18.90;10.63;;;;;;;;;;776989;179;919400;-65
2023/02/28 12:08:31;;;;;;;12.93;8.80;;;;;;;;;;771096;181;881717;-70
2023/02/28 12:10:57;;;;;;;11.47;8.63;;;;;;;;;;775845;180;858190;-69
2023/02/28 12:13:27;;;;;;;25.08;14.50;;;;;;;;;;773739;180;1021998;-69
2023/02/28 12:16:02;;;;;;;21.00;14.03;;;;;;;;;;770345;180;919302;-69
2023/02/28 12:18:34;;;;;;;14.80;8.57;;;;;;;;;;766951;183;918624;-65
2023/02/28 12:21:00;;;;;;;17.30;11.23;;;;;;;;;;774535;183;816010;-64
2023/02/28 12:23:42;;;;;;;17.93;11.93;;;;;;;;;;772269;181;923974;-65
2023/02/28 12:26:22;;;;;;;11.23;7.37;;;;;;;;;;769321;180;927596;-65
2023/02/28 12:28:49;;;;;;;16.60;12.23;;;;;;;;;;768659;181;819528;-69
2023/02/28 12:31:20;;;;;;;15.97;9.50;;;;;;;;;;774540;181;851572;-65
2023/02/28 12:33:46;;;;;;;14.67;8.87;;;;;;;;;;772046;181;884090;-65
2023/02/28 12:36:12;;;;;;;21.90;12.80;;;;;;;;;;767198;180;917650;-70
2023/02/28 12:38:38;;;;;;;17.20;11.60;;;;;;;;;;770003;181;919283;-72
2023/02/28 12:41:07;;;;;;;11.12;7.37;;;;;;;;;;772473;179;921445;-70
2023/02/28 12:43:34;;;;;;;21.87;15.13;;;;;;;;;;770743;181;917361;-70
2023/02/28 12:46:00;;;;;;;21.23;10.13;;;;;;;;;;773048;181;919473;-65
2023/02/28 12:48:26;;;;;;;18.50;12.30;;;;;;;;;;767167;182;918683;-66
2023/02/28 12:50:52;;;;;;;15.87;9.87;;;;;;;;;;772632;179;866424;-66
2023/02/28 12:53:18;;;;;;;17.70;13.63;;;;;;;;;;769727;180;918462;-70
2023/02/28 12:55:46;;;;;;;18.33;8.30;;;;;;;;;;772523;179;918334;-70
2023/02/28 12:58:15;;;;;;;15.05;9.18;;;;;;;;;;769985;179;919824;-72
2023/02/28 13:00:43;;;;;;;20.33;10.93;;;;;;;;;;767923;182;917704;-71
2023/02/28 13:03:14;;;;;;;13.70;7.47;;;;;;;;;;764614;180;920929;-66
2023/02/28 13:05:40;;;;;;;20.10;12.40;;;;;;;;;;767986;181;860298;-70
2023/02/28 13:08:25;;;;;;;20.80;13.30;;;;;;;;;;776034;181;917521;-66
2023/02/28 13:10:54;;;;;;;16.53;11.57;;;;;;;;;;761370;181;920089;-66
2023/02/28 13:13:16;;;;;;;17.27;12.90;;;;;;;;;;767756;181;917991;-65
2023/02/28 13:15:45;;;;;;;16.33;9.13;;;;;;;;;;767252;181;918337;-72
2023/02/28 13:18:08;;;;;;;13.30;10.88;;;;;;;;;;776263;179;923306;-72
2023/02/28 13:20:34;;;;;;;12.70;5.70;;;;;;;;;;777390;181;820536;-71
2023/02/28 13:23:01;;;;;;;11.77;8.63;;;;;;;;;;768374;180;914355;-65
2023/02/28 13:25:26;;;;;;;21.60;13.13;;;;;;;;;;770197;179;914438;-72
2023/02/28 13:27:56;;;;;;;23.23;9.20;;;;;;;;;;772149;181;918954;-66
2023/02/28 13:30:24;;;;;;;24.93;10.33;;;;;;;;;;765319;181;929278;-71
2023/02/28 13:32:50;;;;;;;21.67;10.40;;;;;;;;;;770689;180;921813;-66
2023/02/28 13:35:16;;;;;;;20.37;12.80;;;;;;;;;;767507;181;918636;-71
2023/02/28 13:37:42;;;;;;;16.45;9.70;;;;;;;;;;773261;180;920654;-66
2023/02/28 13:40:25;;;;;;;14.93;10.37;;;;;;;;;;772427;180;920257;-70
2023/02/28 13:42:52;;;;;;;12.73;9.60;;;;;;;;;;765143;179;918603;-71
2023/02/28 13:45:20;;;;;;;23.43;9.40;;;;;;;;;;768125;180;922276;-72
2023/02/28 13:48:02;;;;;;;21.02;12.68;;;;;;;;;;777101;181;919049;-66
2023/02/28 13:50:29;;;;;;;21.30;13.15;;;;;;;;;;773359;179;822691;-66
2023/02/28 13:53:00;;;;;;;16.57;9.80;;;;;;;;;;764509;183;917725;-71
2023/02/28 13:55:26;;;;;;;19.50;11.70;;;;;;;;;;772491;181;918730;-66
2023/02/28 13:57:56;;;;;;;35.67;17.90;;;;;;;;;;769272;181;919182;-67
2023/02/28 14:00:24;;;;;;;17.43;9.23;;;;;;;;;;773033;181;817368;-65
2023/02/28 14:02:50;;;;;;;24.63;15.73;;;;;;;;;;769534;183;874813;-71
2023/02/28 14:05:17;;;;;;;13.00;9.13;;;;;;;;;;758028;183;919430;-71